sensor_id;sensor_type;location;lat;lon;timestamp;P1;durP1;ratioP1;P2;durP2;ratioP2
21894;SDS011;11112;51.270;7.224;2022-12-31T00:01:12;1.48;;;0.60;;
21894;SDS011;11112;51.270;7.224;2022-12-31T00:03:41;2.03;;;0.75;;
21894;SDS011;11112;51.270;7.224;2022-12-31T00:06:15;1.08;;;0.60;;
21894;SDS011;11112;51.270;7.224;2022-12-31T00:08:47;1.00;;;0.50;;
21894;SDS011;11112;51.270;7.224;2022-12-31T00:11:16;2.17;;;0.70;;
21894;SDS011;11112;51.270;7.224;2022-12-31T00:13:44;1.25;;;0.60;;
21894;SDS011;11112;51.270;7.224;2022-12-31T00:16:12;1.25;;;0.60;;
21894;SDS011;11112;51.270;7.224;2022-12-31T00:18:42;2.08;;;0.60;;
21894;SDS011;11112;51.270;7.224;2022-12-31T00:21:11;2.75;;;0.63;;
21894;SDS011;11112;51.270;7.224;2022-12-31T00:23:39;2.17;;;0.65;;
21894;SDS011;11112;51.270;7.224;2022-12-31T00:26:07;1.23;;;0.70;;
21894;SDS011;11112;51.270;7.224;2022-12-31T00:28:38;1.50;;;0.60;;
21894;SDS011;11112;51.270;7.224;2022-12-31T00:31:07;2.17;;;0.47;;
21894;SDS011;11112;51.270;7.224;2022-12-31T00:33:36;2.08;;;0.57;;
21894;SDS011;11112;51.270;7.224;2022-12-31T00:36:05;1.17;;;0.50;;
21894;SDS011;11112;51.270;7.224;2022-12-31T00:38:34;1.10;;;0.57;;
21894;SDS011;11112;51.270;7.224;2022-12-31T00:41:06;0.70;;;0.45;;
21894;SDS011;11112;51.270;7.224;2022-12-31T00:43:34;1.48;;;0.52;;
21894;SDS011;11112;51.270;7.224;2022-12-31T00:46:03;2.20;;;0.50;;
21894;SDS011;11112;51.270;7.224;2022-12-31T00:48:32;2.25;;;0.47;;
21894;SDS011;11112;51.270;7.224;2022-12-31T00:50:59;1.50;;;0.45;;
21894;SDS011;11112;51.270;7.224;2022-12-31T00:53:28;0.40;;;0.30;;
21894;SDS011;11112;51.270;7.224;2022-12-31T00:55:58;1.55;;;0.50;;
21894;SDS011;11112;51.270;7.224;2022-12-31T00:58:26;1.40;;;0.70;;
21894;SDS011;11112;51.270;7.224;2022-12-31T01:00:53;0.60;;;0.45;;
21894;SDS011;11112;51.270;7.224;2022-12-31T01:03:21;1.27;;;0.40;;
21894;SDS011;11112;51.270;7.224;2022-12-31T01:05:49;1.27;;;0.35;;
21894;SDS011;11112;51.270;7.224;2022-12-31T01:08:17;0.90;;;0.30;;
21894;SDS011;11112;51.270;7.224;2022-12-31T01:10:47;0.73;;;0.30;;
21894;SDS011;11112;51.270;7.224;2022-12-31T01:13:32;0.28;;;0.20;;
21894;SDS011;11112;51.270;7.224;2022-12-31T01:16:04;1.10;;;0.30;;
21894;SDS011;11112;51.270;7.224;2022-12-31T01:21:02;1.67;;;0.40;;
21894;SDS011;11112;51.270;7.224;2022-12-31T01:23:31;1.70;;;0.32;;
21894;SDS011;11112;51.270;7.224;2022-12-31T01:25:59;0.80;;;0.20;;
21894;SDS011;11112;51.270;7.224;2022-12-31T01:28:27;0.73;;;0.30;;
21894;SDS011;11112;51.270;7.224;2022-12-31T01:30:55;0.88;;;0.30;;
21894;SDS011;11112;51.270;7.224;2022-12-31T01:33:22;1.35;;;0.30;;
21894;SDS011;11112;51.270;7.224;2022-12-31T01:35:51;0.40;;;0.20;;
21894;SDS011;11112;51.270;7.224;2022-12-31T01:38:18;0.45;;;0.20;;
21894;SDS011;11112;51.270;7.224;2022-12-31T01:40:45;1.55;;;0.20;;
21894;SDS011;11112;51.270;7.224;2022-12-31T01:43:13;0.43;;;0.20;;
21894;SDS011;11112;51.270;7.224;2022-12-31T01:45:42;0.20;;;0.20;;
21894;SDS011;11112;51.270;7.224;2022-12-31T01:48:12;1.67;;;0.20;;
21894;SDS011;11112;51.270;7.224;2022-12-31T01:50:44;1.05;;;0.20;;
21894;SDS011;11112;51.270;7.224;2022-12-31T01:53:13;1.20;;;0.30;;
21894;SDS011;11112;51.270;7.224;2022-12-31T01:55:43;0.95;;;0.20;;
21894;SDS011;11112;51.270;7.224;2022-12-31T01:58:14;2.08;;;0.20;;
21894;SDS011;11112;51.270;7.224;2022-12-31T02:00:45;1.17;;;0.20;;
21894;SDS011;11112;51.270;7.224;2022-12-31T02:03:13;0.77;;;0.20;;
21894;SDS011;11112;51.270;7.224;2022-12-31T02:05:42;1.15;;;0.17;;
21894;SDS011;11112;51.270;7.224;2022-12-31T02:08:16;0.35;;;0.17;;
21894;SDS011;11112;51.270;7.224;2022-12-31T02:10:43;0.95;;;0.15;;
21894;SDS011;11112;51.270;7.224;2022-12-31T02:13:11;0.60;;;0.15;;
21894;SDS011;11112;51.270;7.224;2022-12-31T02:15:42;1.08;;;0.22;;
21894;SDS011;11112;51.270;7.224;2022-12-31T02:21:00;0.40;;;0.00;;
21894;SDS011;11112;51.270;7.224;2022-12-31T02:24:15;0.30;;;0.10;;
21894;SDS011;11112;51.270;7.224;2022-12-31T02:27:25;0.65;;;0.10;;
21894;SDS011;11112;51.270;7.224;2022-12-31T02:30:11;0.47;;;0.10;;
21894;SDS011;11112;51.270;7.224;2022-12-31T02:32:43;0.10;;;0.03;;
21894;SDS011;11112;51.270;7.224;2022-12-31T02:35:21;0.30;;;0.10;;
21894;SDS011;11112;51.270;7.224;2022-12-31T02:37:55;0.10;;;0.08;;
21894;SDS011;11112;51.270;7.224;2022-12-31T02:40:28;0.77;;;0.10;;
21894;SDS011;11112;51.270;7.224;2022-12-31T02:42:55;0.95;;;0.20;;
21894;SDS011;11112;51.270;7.224;2022-12-31T02:45:25;0.00;;;0.00;;
21894;SDS011;11112;51.270;7.224;2022-12-31T02:48:02;1.25;;;0.10;;
21894;SDS011;11112;51.270;7.224;2022-12-31T02:50:43;0.05;;;0.00;;
21894;SDS011;11112;51.270;7.224;2022-12-31T02:53:24;0.20;;;0.00;;
21894;SDS011;11112;51.270;7.224;2022-12-31T02:56:08;0.40;;;0.10;;
21894;SDS011;11112;51.270;7.224;2022-12-31T02:58:44;0.10;;;0.00;;
21894;SDS011;11112;51.270;7.224;2022-12-31T03:01:39;1.02;;;0.00;;
21894;SDS011;11112;51.270;7.224;2022-12-31T03:04:28;1.42;;;0.00;;
21894;SDS011;11112;51.270;7.224;2022-12-31T03:07:00;0.17;;;0.00;;
21894;SDS011;11112;51.270;7.224;2022-12-31T03:09:29;0.35;;;0.05;;
21894;SDS011;11112;51.270;7.224;2022-12-31T03:11:56;0.13;;;0.00;;
21894;SDS011;11112;51.270;7.224;2022-12-31T03:14:41;1.17;;;0.10;;
21894;SDS011;11112;51.270;7.224;2022-12-31T03:17:10;0.10;;;0.00;;
21894;SDS011;11112;51.270;7.224;2022-12-31T03:19:37;1.02;;;0.10;;
21894;SDS011;11112;51.270;7.224;2022-12-31T03:22:22;0.30;;;0.03;;
21894;SDS011;11112;51.270;7.224;2022-12-31T03:24:55;0.63;;;0.10;;
21894;SDS011;11112;51.270;7.224;2022-12-31T03:27:43;0.47;;;0.00;;
21894;SDS011;11112;51.270;7.224;2022-12-31T03:30:11;0.10;;;0.10;;
21894;SDS011;11112;51.270;7.224;2022-12-31T03:32:42;1.02;;;0.10;;
21894;SDS011;11112;51.270;7.224;2022-12-31T03:35:11;1.00;;;0.05;;
21894;SDS011;11112;51.270;7.224;2022-12-31T03:37:39;0.40;;;0.15;;
21894;SDS011;11112;51.270;7.224;2022-12-31T03:40:08;0.85;;;0.10;;
21894;SDS011;11112;51.270;7.224;2022-12-31T03:42:38;0.20;;;0.10;;
21894;SDS011;11112;51.270;7.224;2022-12-31T03:45:06;0.93;;;0.10;;
21894;SDS011;11112;51.270;7.224;2022-12-31T03:47:35;0.28;;;0.10;;
21894;SDS011;11112;51.270;7.224;2022-12-31T03:50:04;0.55;;;0.10;;
21894;SDS011;11112;51.270;7.224;2022-12-31T03:52:33;0.85;;;0.10;;
21894;SDS011;11112;51.270;7.224;2022-12-31T03:55:00;0.63;;;0.10;;
21894;SDS011;11112;51.270;7.224;2022-12-31T03:57:28;0.50;;;0.10;;
21894;SDS011;11112;51.270;7.224;2022-12-31T03:59:55;0.80;;;0.10;;
21894;SDS011;11112;51.270;7.224;2022-12-31T04:02:22;0.57;;;0.10;;
21894;SDS011;11112;51.270;7.224;2022-12-31T04:04:50;1.20;;;0.17;;
21894;SDS011;11112;51.270;7.224;2022-12-31T04:07:18;0.55;;;0.10;;
21894;SDS011;11112;51.270;7.224;2022-12-31T04:09:45;0.77;;;0.10;;
21894;SDS011;11112;51.270;7.224;2022-12-31T04:12:12;0.20;;;0.00;;
21894;SDS011;11112;51.270;7.224;2022-12-31T04:14:40;0.13;;;0.10;;
21894;SDS011;11112;51.270;7.224;2022-12-31T04:17:07;1.17;;;0.10;;
21894;SDS011;11112;51.270;7.224;2022-12-31T04:19:34;0.10;;;0.00;;
21894;SDS011;11112;51.270;7.224;2022-12-31T04:22:01;0.57;;;0.10;;
21894;SDS011;11112;51.270;7.224;2022-12-31T04:24:30;0.88;;;0.10;;
21894;SDS011;11112;51.270;7.224;2022-12-31T04:26:57;0.35;;;0.08;;
21894;SDS011;11112;51.270;7.224;2022-12-31T04:29:24;0.35;;;0.10;;
21894;SDS011;11112;51.270;7.224;2022-12-31T04:31:51;0.30;;;0.00;;
21894;SDS011;11112;51.270;7.224;2022-12-31T04:34:18;0.25;;;0.00;;
21894;SDS011;11112;51.270;7.224;2022-12-31T04:36:46;0.60;;;0.05;;
21894;SDS011;11112;51.270;7.224;2022-12-31T04:39:13;0.82;;;0.20;;
21894;SDS011;11112;51.270;7.224;2022-12-31T04:41:41;0.65;;;0.13;;
21894;SDS011;11112;51.270;7.224;2022-12-31T04:44:08;0.20;;;0.10;;
21894;SDS011;11112;51.270;7.224;2022-12-31T04:46:35;0.57;;;0.08;;
21894;SDS011;11112;51.270;7.224;2022-12-31T04:49:02;1.40;;;0.10;;
21894;SDS011;11112;51.270;7.224;2022-12-31T04:51:30;1.05;;;0.20;;
21894;SDS011;11112;51.270;7.224;2022-12-31T04:53:57;1.05;;;0.15;;
21894;SDS011;11112;51.270;7.224;2022-12-31T04:56:25;0.57;;;0.10;;
21894;SDS011;11112;51.270;7.224;2022-12-31T04:58:55;0.50;;;0.10;;
21894;SDS011;11112;51.270;7.224;2022-12-31T05:01:22;1.92;;;0.20;;
21894;SDS011;11112;51.270;7.224;2022-12-31T05:03:50;0.77;;;0.00;;
21894;SDS011;11112;51.270;7.224;2022-12-31T05:06:17;1.13;;;0.20;;
21894;SDS011;11112;51.270;7.224;2022-12-31T05:08:47;0.30;;;0.10;;
21894;SDS011;11112;51.270;7.224;2022-12-31T05:11:15;1.20;;;0.20;;
21894;SDS011;11112;51.270;7.224;2022-12-31T05:13:42;0.47;;;0.10;;
21894;SDS011;11112;51.270;7.224;2022-12-31T05:16:11;0.80;;;0.10;;
21894;SDS011;11112;51.270;7.224;2022-12-31T05:18:38;0.93;;;0.10;;
21894;SDS011;11112;51.270;7.224;2022-12-31T05:21:05;1.13;;;0.20;;
21894;SDS011;11112;51.270;7.224;2022-12-31T05:23:32;0.85;;;0.20;;
21894;SDS011;11112;51.270;7.224;2022-12-31T05:26:00;1.00;;;0.20;;
21894;SDS011;11112;51.270;7.224;2022-12-31T05:28:27;1.25;;;0.20;;
21894;SDS011;11112;51.270;7.224;2022-12-31T05:30:54;1.58;;;0.22;;
21894;SDS011;11112;51.270;7.224;2022-12-31T05:33:22;0.40;;;0.10;;
21894;SDS011;11112;51.270;7.224;2022-12-31T05:35:49;1.70;;;0.15;;
21894;SDS011;11112;51.270;7.224;2022-12-31T05:38:16;1.65;;;0.28;;
21894;SDS011;11112;51.270;7.224;2022-12-31T05:40:43;3.65;;;0.30;;
21894;SDS011;11112;51.270;7.224;2022-12-31T05:43:10;0.90;;;0.20;;
21894;SDS011;11112;51.270;7.224;2022-12-31T05:45:37;2.78;;;0.28;;
21894;SDS011;11112;51.270;7.224;2022-12-31T05:48:04;1.30;;;0.30;;
21894;SDS011;11112;51.270;7.224;2022-12-31T05:50:33;1.90;;;0.30;;
21894;SDS011;11112;51.270;7.224;2022-12-31T05:53:00;1.95;;;0.40;;
21894;SDS011;11112;51.270;7.224;2022-12-31T05:55:27;1.58;;;0.30;;
21894;SDS011;11112;51.270;7.224;2022-12-31T05:57:54;1.80;;;0.40;;
21894;SDS011;11112;51.270;7.224;2022-12-31T06:00:21;1.35;;;0.30;;
21894;SDS011;11112;51.270;7.224;2022-12-31T06:02:48;2.10;;;0.30;;
21894;SDS011;11112;51.270;7.224;2022-12-31T06:05:15;1.35;;;0.50;;
21894;SDS011;11112;51.270;7.224;2022-12-31T06:07:44;1.77;;;0.40;;
21894;SDS011;11112;51.270;7.224;2022-12-31T06:10:11;2.42;;;0.30;;
21894;SDS011;11112;51.270;7.224;2022-12-31T06:12:38;0.80;;;0.20;;
21894;SDS011;11112;51.270;7.224;2022-12-31T06:15:06;2.05;;;0.22;;
21894;SDS011;11112;51.270;7.224;2022-12-31T06:17:34;1.70;;;0.30;;
21894;SDS011;11112;51.270;7.224;2022-12-31T06:20:01;2.25;;;0.30;;
21894;SDS011;11112;51.270;7.224;2022-12-31T06:22:29;3.78;;;0.30;;
21894;SDS011;11112;51.270;7.224;2022-12-31T06:24:58;3.47;;;0.30;;
21894;SDS011;11112;51.270;7.224;2022-12-31T06:27:25;2.65;;;0.40;;
21894;SDS011;11112;51.270;7.224;2022-12-31T06:29:52;3.53;;;0.35;;
21894;SDS011;11112;51.270;7.224;2022-12-31T06:32:19;6.55;;;0.45;;
21894;SDS011;11112;51.270;7.224;2022-12-31T06:34:46;2.22;;;0.50;;
21894;SDS011;11112;51.270;7.224;2022-12-31T06:37:13;3.53;;;0.30;;
21894;SDS011;11112;51.270;7.224;2022-12-31T06:39:40;1.75;;;0.40;;
21894;SDS011;11112;51.270;7.224;2022-12-31T06:42:08;1.63;;;0.30;;
21894;SDS011;11112;51.270;7.224;2022-12-31T06:44:35;1.80;;;0.30;;
21894;SDS011;11112;51.270;7.224;2022-12-31T06:47:02;4.03;;;0.40;;
21894;SDS011;11112;51.270;7.224;2022-12-31T06:49:29;4.00;;;0.40;;
21894;SDS011;11112;51.270;7.224;2022-12-31T06:51:56;1.60;;;0.35;;
21894;SDS011;11112;51.270;7.224;2022-12-31T06:54:24;2.42;;;0.32;;
21894;SDS011;11112;51.270;7.224;2022-12-31T06:56:51;1.35;;;0.32;;
21894;SDS011;11112;51.270;7.224;2022-12-31T06:59:24;2.30;;;0.38;;
21894;SDS011;11112;51.270;7.224;2022-12-31T07:05:05;3.85;;;0.50;;
21894;SDS011;11112;51.270;7.224;2022-12-31T07:07:54;1.67;;;0.35;;
21894;SDS011;11112;51.270;7.224;2022-12-31T07:10:36;2.03;;;0.40;;
21894;SDS011;11112;51.270;7.224;2022-12-31T07:13:17;2.70;;;0.40;;
21894;SDS011;11112;51.270;7.224;2022-12-31T07:16:14;1.75;;;0.30;;
21894;SDS011;11112;51.270;7.224;2022-12-31T07:19:00;3.85;;;0.60;;
21894;SDS011;11112;51.270;7.224;2022-12-31T07:21:42;2.42;;;0.38;;
21894;SDS011;11112;51.270;7.224;2022-12-31T07:24:11;2.10;;;0.35;;
21894;SDS011;11112;51.270;7.224;2022-12-31T07:26:48;2.90;;;0.40;;
21894;SDS011;11112;51.270;7.224;2022-12-31T07:29:33;4.82;;;0.47;;
21894;SDS011;11112;51.270;7.224;2022-12-31T07:32:17;4.18;;;0.40;;
21894;SDS011;11112;51.270;7.224;2022-12-31T07:35:00;1.73;;;0.30;;
21894;SDS011;11112;51.270;7.224;2022-12-31T07:37:38;2.42;;;0.47;;
21894;SDS011;11112;51.270;7.224;2022-12-31T07:40:15;2.40;;;0.40;;
21894;SDS011;11112;51.270;7.224;2022-12-31T07:42:56;2.80;;;0.57;;
21894;SDS011;11112;51.270;7.224;2022-12-31T07:45:35;3.72;;;0.60;;
21894;SDS011;11112;51.270;7.224;2022-12-31T07:48:20;3.85;;;0.70;;
21894;SDS011;11112;51.270;7.224;2022-12-31T07:50:50;3.42;;;0.35;;
21894;SDS011;11112;51.270;7.224;2022-12-31T07:53:20;2.85;;;0.40;;
21894;SDS011;11112;51.270;7.224;2022-12-31T07:55:49;2.22;;;0.50;;
21894;SDS011;11112;51.270;7.224;2022-12-31T07:58:21;3.38;;;0.52;;
21894;SDS011;11112;51.270;7.224;2022-12-31T08:00:57;1.73;;;0.43;;
21894;SDS011;11112;51.270;7.224;2022-12-31T08:03:36;3.47;;;0.50;;
21894;SDS011;11112;51.270;7.224;2022-12-31T08:06:16;2.58;;;0.50;;
21894;SDS011;11112;51.270;7.224;2022-12-31T08:08:52;1.50;;;0.40;;
21894;SDS011;11112;51.270;7.224;2022-12-31T08:11:29;2.17;;;0.60;;
21894;SDS011;11112;51.270;7.224;2022-12-31T08:14:04;2.88;;;0.50;;
21894;SDS011;11112;51.270;7.224;2022-12-31T08:16:36;4.53;;;0.55;;
21894;SDS011;11112;51.270;7.224;2022-12-31T08:19:07;2.53;;;0.55;;
21894;SDS011;11112;51.270;7.224;2022-12-31T08:21:51;2.28;;;0.50;;
21894;SDS011;11112;51.270;7.224;2022-12-31T08:24:32;2.20;;;0.40;;
21894;SDS011;11112;51.270;7.224;2022-12-31T08:27:11;2.45;;;0.60;;
21894;SDS011;11112;51.270;7.224;2022-12-31T08:29:48;2.88;;;0.60;;
21894;SDS011;11112;51.270;7.224;2022-12-31T08:32:25;4.15;;;0.55;;
21894;SDS011;11112;51.270;7.224;2022-12-31T08:35:00;3.03;;;0.50;;
21894;SDS011;11112;51.270;7.224;2022-12-31T08:37:42;2.28;;;0.52;;
21894;SDS011;11112;51.270;7.224;2022-12-31T08:40:18;2.55;;;0.40;;
21894;SDS011;11112;51.270;7.224;2022-12-31T08:43:02;2.30;;;0.55;;
21894;SDS011;11112;51.270;7.224;2022-12-31T08:45:45;4.57;;;0.50;;
21894;SDS011;11112;51.270;7.224;2022-12-31T08:48:18;3.58;;;0.63;;
21894;SDS011;11112;51.270;7.224;2022-12-31T08:50:54;4.45;;;0.70;;
21894;SDS011;11112;51.270;7.224;2022-12-31T08:53:22;2.50;;;0.57;;
21894;SDS011;11112;51.270;7.224;2022-12-31T08:55:52;2.83;;;0.60;;
21894;SDS011;11112;51.270;7.224;2022-12-31T08:58:30;3.58;;;0.65;;
21894;SDS011;11112;51.270;7.224;2022-12-31T09:01:08;2.25;;;0.50;;
21894;SDS011;11112;51.270;7.224;2022-12-31T09:06:35;2.35;;;0.60;;
21894;SDS011;11112;51.270;7.224;2022-12-31T09:09:09;2.97;;;0.75;;
21894;SDS011;11112;51.270;7.224;2022-12-31T09:11:48;3.22;;;0.50;;
21894;SDS011;11112;51.270;7.224;2022-12-31T09:17:30;3.13;;;0.88;;
21894;SDS011;11112;51.270;7.224;2022-12-31T09:20:14;1.98;;;0.63;;
21894;SDS011;11112;51.270;7.224;2022-12-31T09:22:47;5.07;;;0.80;;
21894;SDS011;11112;51.270;7.224;2022-12-31T09:25:18;3.80;;;1.02;;
21894;SDS011;11112;51.270;7.224;2022-12-31T09:27:55;2.67;;;1.00;;
21894;SDS011;11112;51.270;7.224;2022-12-31T09:30:32;3.13;;;0.77;;
21894;SDS011;11112;51.270;7.224;2022-12-31T09:33:07;3.13;;;0.70;;
21894;SDS011;11112;51.270;7.224;2022-12-31T09:35:40;2.70;;;1.10;;
21894;SDS011;11112;51.270;7.224;2022-12-31T09:38:20;3.80;;;0.95;;
21894;SDS011;11112;51.270;7.224;2022-12-31T09:41:03;2.85;;;0.80;;
21894;SDS011;11112;51.270;7.224;2022-12-31T09:44:02;2.13;;;0.73;;
21894;SDS011;11112;51.270;7.224;2022-12-31T09:47:13;5.60;;;0.98;;
21894;SDS011;11112;51.270;7.224;2022-12-31T09:56:31;5.65;;;1.05;;
21894;SDS011;11112;51.270;7.224;2022-12-31T09:59:04;3.22;;;0.80;;
21894;SDS011;11112;51.270;7.224;2022-12-31T10:01:41;3.92;;;1.02;;
21894;SDS011;11112;51.270;7.224;2022-12-31T10:07:17;5.85;;;1.00;;
21894;SDS011;11112;51.270;7.224;2022-12-31T10:10:08;3.75;;;0.90;;
21894;SDS011;11112;51.270;7.224;2022-12-31T10:15:50;4.68;;;1.05;;
21894;SDS011;11112;51.270;7.224;2022-12-31T10:18:40;3.70;;;0.75;;
21894;SDS011;11112;51.270;7.224;2022-12-31T10:21:28;5.30;;;0.88;;
21894;SDS011;11112;51.270;7.224;2022-12-31T10:27:37;2.90;;;0.98;;
21894;SDS011;11112;51.270;7.224;2022-12-31T10:30:15;4.07;;;0.80;;
21894;SDS011;11112;51.270;7.224;2022-12-31T10:32:51;6.03;;;1.10;;
21894;SDS011;11112;51.270;7.224;2022-12-31T10:35:33;2.33;;;0.70;;
21894;SDS011;11112;51.270;7.224;2022-12-31T10:38:11;5.47;;;0.98;;
21894;SDS011;11112;51.270;7.224;2022-12-31T10:41:04;3.70;;;1.00;;
21894;SDS011;11112;51.270;7.224;2022-12-31T10:47:22;4.13;;;0.93;;
21894;SDS011;11112;51.270;7.224;2022-12-31T10:50:28;4.13;;;1.10;;
21894;SDS011;11112;51.270;7.224;2022-12-31T10:53:15;5.20;;;1.10;;
21894;SDS011;11112;51.270;7.224;2022-12-31T10:59:27;4.72;;;1.23;;
21894;SDS011;11112;51.270;7.224;2022-12-31T11:05:52;3.30;;;0.80;;
21894;SDS011;11112;51.270;7.224;2022-12-31T11:15:59;2.78;;;0.80;;
21894;SDS011;11112;51.270;7.224;2022-12-31T11:18:40;4.22;;;0.95;;
21894;SDS011;11112;51.270;7.224;2022-12-31T11:21:20;5.75;;;0.93;;
21894;SDS011;11112;51.270;7.224;2022-12-31T11:24:02;3.60;;;1.20;;
21894;SDS011;11112;51.270;7.224;2022-12-31T11:26:46;4.95;;;1.13;;
21894;SDS011;11112;51.270;7.224;2022-12-31T11:29:35;6.15;;;0.98;;
21894;SDS011;11112;51.270;7.224;2022-12-31T11:32:27;2.42;;;0.90;;
21894;SDS011;11112;51.270;7.224;2022-12-31T11:35:19;2.92;;;0.60;;
21894;SDS011;11112;51.270;7.224;2022-12-31T11:37:53;5.72;;;1.17;;
21894;SDS011;11112;51.270;7.224;2022-12-31T11:40:39;4.85;;;1.10;;
21894;SDS011;11112;51.270;7.224;2022-12-31T11:43:22;2.67;;;0.65;;
21894;SDS011;11112;51.270;7.224;2022-12-31T11:55:18;3.78;;;0.85;;
21894;SDS011;11112;51.270;7.224;2022-12-31T11:58:00;4.22;;;0.80;;
21894;SDS011;11112;51.270;7.224;2022-12-31T12:00:37;3.05;;;1.00;;
21894;SDS011;11112;51.270;7.224;2022-12-31T12:03:09;6.13;;;1.10;;
21894;SDS011;11112;51.270;7.224;2022-12-31T12:05:39;3.28;;;0.77;;
21894;SDS011;11112;51.270;7.224;2022-12-31T12:08:06;4.18;;;0.90;;
21894;SDS011;11112;51.270;7.224;2022-12-31T12:10:35;5.00;;;1.00;;
21894;SDS011;11112;51.270;7.224;2022-12-31T12:13:19;5.13;;;1.08;;
21894;SDS011;11112;51.270;7.224;2022-12-31T12:15:50;3.78;;;1.10;;
21894;SDS011;11112;51.270;7.224;2022-12-31T12:18:25;3.25;;;0.80;;
21894;SDS011;11112;51.270;7.224;2022-12-31T12:21:04;5.82;;;2.00;;
21894;SDS011;11112;51.270;7.224;2022-12-31T12:23:35;3.20;;;0.90;;
21894;SDS011;11112;51.270;7.224;2022-12-31T12:26:03;2.90;;;0.90;;
21894;SDS011;11112;51.270;7.224;2022-12-31T12:28:41;7.43;;;1.20;;
21894;SDS011;11112;51.270;7.224;2022-12-31T12:31:17;5.65;;;1.35;;
21894;SDS011;11112;51.270;7.224;2022-12-31T12:33:45;4.57;;;1.40;;
21894;SDS011;11112;51.270;7.224;2022-12-31T12:36:15;9.15;;;3.38;;
21894;SDS011;11112;51.270;7.224;2022-12-31T12:38:45;3.80;;;1.40;;
21894;SDS011;11112;51.270;7.224;2022-12-31T12:41:17;4.22;;;1.52;;
21894;SDS011;11112;51.270;7.224;2022-12-31T12:43:48;3.28;;;1.27;;
21894;SDS011;11112;51.270;7.224;2022-12-31T12:46:17;3.67;;;1.38;;
21894;SDS011;11112;51.270;7.224;2022-12-31T12:48:52;6.10;;;1.08;;
21894;SDS011;11112;51.270;7.224;2022-12-31T12:54:03;4.20;;;1.33;;
21894;SDS011;11112;51.270;7.224;2022-12-31T12:56:48;3.88;;;1.13;;
21894;SDS011;11112;51.270;7.224;2022-12-31T13:02:26;6.60;;;2.00;;
21894;SDS011;11112;51.270;7.224;2022-12-31T13:05:23;3.53;;;1.33;;
21894;SDS011;11112;51.270;7.224;2022-12-31T13:08:07;4.90;;;1.27;;
21894;SDS011;11112;51.270;7.224;2022-12-31T13:10:50;4.47;;;1.17;;
21894;SDS011;11112;51.270;7.224;2022-12-31T13:13:36;5.68;;;1.23;;
21894;SDS011;11112;51.270;7.224;2022-12-31T13:16:11;3.83;;;1.15;;
21894;SDS011;11112;51.270;7.224;2022-12-31T13:18:49;11.07;;;4.70;;
21894;SDS011;11112;51.270;7.224;2022-12-31T13:21:32;7.47;;;2.40;;
21894;SDS011;11112;51.270;7.224;2022-12-31T13:24:12;6.22;;;1.45;;
21894;SDS011;11112;51.270;7.224;2022-12-31T13:26:52;4.85;;;1.50;;
21894;SDS011;11112;51.270;7.224;2022-12-31T13:29:25;3.95;;;1.05;;
21894;SDS011;11112;51.270;7.224;2022-12-31T13:31:56;7.75;;;1.50;;
21894;SDS011;11112;51.270;7.224;2022-12-31T13:34:27;5.57;;;1.60;;
21894;SDS011;11112;51.270;7.224;2022-12-31T13:36:59;4.75;;;1.00;;
21894;SDS011;11112;51.270;7.224;2022-12-31T13:39:35;8.73;;;1.17;;
21894;SDS011;11112;51.270;7.224;2022-12-31T13:42:06;5.57;;;1.20;;
21894;SDS011;11112;51.270;7.224;2022-12-31T13:44:38;6.03;;;1.10;;
21894;SDS011;11112;51.270;7.224;2022-12-31T13:49:43;7.53;;;1.23;;
21894;SDS011;11112;51.270;7.224;2022-12-31T13:52:17;4.15;;;1.23;;
21894;SDS011;11112;51.270;7.224;2022-12-31T13:54:57;5.20;;;0.93;;
21894;SDS011;11112;51.270;7.224;2022-12-31T13:57:35;6.57;;;1.25;;
21894;SDS011;11112;51.270;7.224;2022-12-31T14:00:13;4.05;;;0.90;;
21894;SDS011;11112;51.270;7.224;2022-12-31T14:02:49;5.35;;;1.20;;
21894;SDS011;11112;51.270;7.224;2022-12-31T14:05:25;6.57;;;1.40;;
21894;SDS011;11112;51.270;7.224;2022-12-31T14:07:59;4.93;;;1.25;;
21894;SDS011;11112;51.270;7.224;2022-12-31T14:10:35;6.13;;;1.52;;
21894;SDS011;11112;51.270;7.224;2022-12-31T14:13:17;4.55;;;1.35;;
21894;SDS011;11112;51.270;7.224;2022-12-31T14:16:10;4.63;;;1.40;;
21894;SDS011;11112;51.270;7.224;2022-12-31T14:18:54;5.38;;;1.10;;
21894;SDS011;11112;51.270;7.224;2022-12-31T14:21:31;6.07;;;1.20;;
21894;SDS011;11112;51.270;7.224;2022-12-31T14:24:11;4.93;;;1.10;;
21894;SDS011;11112;51.270;7.224;2022-12-31T14:26:44;5.90;;;1.40;;
21894;SDS011;11112;51.270;7.224;2022-12-31T14:29:21;8.75;;;1.60;;
21894;SDS011;11112;51.270;7.224;2022-12-31T14:35:34;9.32;;;1.40;;
21894;SDS011;11112;51.270;7.224;2022-12-31T14:38:26;6.30;;;1.20;;
21894;SDS011;11112;51.270;7.224;2022-12-31T14:41:10;6.50;;;1.48;;
21894;SDS011;11112;51.270;7.224;2022-12-31T14:43:59;7.07;;;1.48;;
21894;SDS011;11112;51.270;7.224;2022-12-31T14:46:41;4.38;;;1.35;;
21894;SDS011;11112;51.270;7.224;2022-12-31T14:49:23;5.32;;;1.30;;
21894;SDS011;11112;51.270;7.224;2022-12-31T14:52:15;8.88;;;1.30;;
21894;SDS011;11112;51.270;7.224;2022-12-31T14:54:56;8.90;;;1.60;;
21894;SDS011;11112;51.270;7.224;2022-12-31T14:57:27;6.45;;;1.42;;
21894;SDS011;11112;51.270;7.224;2022-12-31T15:00:20;3.47;;;1.38;;
21894;SDS011;11112;51.270;7.224;2022-12-31T15:02:58;6.22;;;1.38;;
21894;SDS011;11112;51.270;7.224;2022-12-31T15:05:29;3.95;;;1.25;;
21894;SDS011;11112;51.270;7.224;2022-12-31T15:08:09;4.93;;;1.30;;
21894;SDS011;11112;51.270;7.224;2022-12-31T15:10:51;5.85;;;1.50;;
21894;SDS011;11112;51.270;7.224;2022-12-31T15:13:40;4.65;;;1.50;;
21894;SDS011;11112;51.270;7.224;2022-12-31T15:16:25;3.50;;;1.20;;
21894;SDS011;11112;51.270;7.224;2022-12-31T15:19:12;6.88;;;1.35;;
21894;SDS011;11112;51.270;7.224;2022-12-31T15:22:20;7.80;;;1.40;;
21894;SDS011;11112;51.270;7.224;2022-12-31T15:25:01;5.50;;;1.58;;
21894;SDS011;11112;51.270;7.224;2022-12-31T15:27:45;5.10;;;1.35;;
21894;SDS011;11112;51.270;7.224;2022-12-31T15:30:28;5.07;;;1.30;;
21894;SDS011;11112;51.270;7.224;2022-12-31T15:33:17;6.18;;;1.60;;
21894;SDS011;11112;51.270;7.224;2022-12-31T15:35:54;4.45;;;1.30;;
21894;SDS011;11112;51.270;7.224;2022-12-31T15:38:32;3.97;;;1.33;;
21894;SDS011;11112;51.270;7.224;2022-12-31T15:41:11;3.90;;;1.15;;
21894;SDS011;11112;51.270;7.224;2022-12-31T15:43:53;5.60;;;1.50;;
21894;SDS011;11112;51.270;7.224;2022-12-31T15:46:25;7.03;;;1.42;;
21894;SDS011;11112;51.270;7.224;2022-12-31T15:48:58;6.15;;;1.48;;
21894;SDS011;11112;51.270;7.224;2022-12-31T15:51:31;4.30;;;1.15;;
21894;SDS011;11112;51.270;7.224;2022-12-31T15:54:12;4.22;;;1.48;;
21894;SDS011;11112;51.270;7.224;2022-12-31T15:56:52;4.13;;;1.10;;
21894;SDS011;11112;51.270;7.224;2022-12-31T15:59:20;4.57;;;1.30;;
21894;SDS011;11112;51.270;7.224;2022-12-31T16:01:50;5.07;;;1.30;;
21894;SDS011;11112;51.270;7.224;2022-12-31T16:04:21;5.47;;;1.20;;
21894;SDS011;11112;51.270;7.224;2022-12-31T16:06:51;4.47;;;1.33;;
21894;SDS011;11112;51.270;7.224;2022-12-31T16:09:19;5.28;;;1.55;;
21894;SDS011;11112;51.270;7.224;2022-12-31T16:11:49;8.25;;;2.70;;
21894;SDS011;11112;51.270;7.224;2022-12-31T16:14:19;15.15;;;4.65;;
21894;SDS011;11112;51.270;7.224;2022-12-31T16:16:50;7.07;;;3.10;;
21894;SDS011;11112;51.270;7.224;2022-12-31T16:19:26;3.80;;;1.38;;
21894;SDS011;11112;51.270;7.224;2022-12-31T16:22:00;5.25;;;1.20;;
21894;SDS011;11112;51.270;7.224;2022-12-31T16:24:33;5.68;;;1.30;;
21894;SDS011;11112;51.270;7.224;2022-12-31T16:27:02;5.05;;;1.30;;
21894;SDS011;11112;51.270;7.224;2022-12-31T16:29:33;2.65;;;1.23;;
21894;SDS011;11112;51.270;7.224;2022-12-31T16:32:02;7.15;;;1.50;;
21894;SDS011;11112;51.270;7.224;2022-12-31T16:34:34;5.07;;;1.35;;
21894;SDS011;11112;51.270;7.224;2022-12-31T16:37:04;5.07;;;1.35;;
21894;SDS011;11112;51.270;7.224;2022-12-31T16:39:47;4.22;;;1.48;;
21894;SDS011;11112;51.270;7.224;2022-12-31T16:42:40;4.07;;;1.35;;